sensor_id;sensor_type;location;lat;lon;timestamp;P1;durP1;ratioP1;P2;durP2;ratioP2
34725;SDS011;20951;50.818;4.344;2023-06-04T00:01:01;5.05;;;1.60;;
34725;SDS011;20951;50.818;4.344;2023-06-04T00:03:28;6.38;;;2.03;;
34725;SDS011;20951;50.818;4.344;2023-06-04T00:05:54;7.22;;;1.90;;
34725;SDS011;20951;50.818;4.344;2023-06-04T00:08:20;5.32;;;1.48;;
34725;SDS011;20951;50.818;4.344;2023-06-04T00:10:46;5.88;;;1.70;;
34725;SDS011;20951;50.818;4.344;2023-06-04T00:13:12;6.00;;;1.45;;
34725;SDS011;20951;50.818;4.344;2023-06-04T00:15:39;6.20;;;1.70;;
34725;SDS011;20951;50.818;4.344;2023-06-04T00:18:05;8.63;;;1.65;;
34725;SDS011;20951;50.818;4.344;2023-06-04T00:20:31;6.32;;;1.73;;
34725;SDS011;20951;50.818;4.344;2023-06-04T00:22:57;4.80;;;1.55;;
34725;SDS011;20951;50.818;4.344;2023-06-04T00:25:23;5.95;;;1.30;;
34725;SDS011;20951;50.818;4.344;2023-06-04T00:27:49;6.05;;;1.55;;
34725;SDS011;20951;50.818;4.344;2023-06-04T00:30:16;6.60;;;1.70;;
34725;SDS011;20951;50.818;4.344;2023-06-04T00:32:42;4.60;;;1.67;;
34725;SDS011;20951;50.818;4.344;2023-06-04T00:35:08;4.57;;;1.70;;
34725;SDS011;20951;50.818;4.344;2023-06-04T00:37:34;7.30;;;1.80;;
34725;SDS011;20951;50.818;4.344;2023-06-04T00:40:00;6.13;;;1.70;;
34725;SDS011;20951;50.818;4.344;2023-06-04T00:42:26;6.55;;;1.52;;
34725;SDS011;20951;50.818;4.344;2023-06-04T00:44:52;4.82;;;1.65;;
34725;SDS011;20951;50.818;4.344;2023-06-04T00:47:20;4.07;;;1.30;;
34725;SDS011;20951;50.818;4.344;2023-06-04T00:49:46;5.30;;;1.38;;
34725;SDS011;20951;50.818;4.344;2023-06-04T00:52:13;5.53;;;1.63;;
34725;SDS011;20951;50.818;4.344;2023-06-04T00:54:40;3.67;;;1.30;;
34725;SDS011;20951;50.818;4.344;2023-06-04T00:57:06;6.10;;;1.98;;
34725;SDS011;20951;50.818;4.344;2023-06-04T00:59:34;5.00;;;1.48;;
34725;SDS011;20951;50.818;4.344;2023-06-04T01:02:06;5.15;;;1.75;;
34725;SDS011;20951;50.818;4.344;2023-06-04T01:04:59;4.53;;;1.35;;
34725;SDS011;20951;50.818;4.344;2023-06-04T01:07:30;4.75;;;1.50;;
34725;SDS011;20951;50.818;4.344;2023-06-04T01:09:59;4.70;;;1.70;;
34725;SDS011;20951;50.818;4.344;2023-06-04T01:12:25;5.70;;;1.88;;
34725;SDS011;20951;50.818;4.344;2023-06-04T01:14:52;5.88;;;1.73;;
34725;SDS011;20951;50.818;4.344;2023-06-04T01:23:05;4.95;;;1.65;;
34725;SDS011;20951;50.818;4.344;2023-06-04T01:25:40;4.78;;;1.80;;
34725;SDS011;20951;50.818;4.344;2023-06-04T01:28:09;5.65;;;1.80;;
34725;SDS011;20951;50.818;4.344;2023-06-04T01:30:37;5.43;;;1.70;;
34725;SDS011;20951;50.818;4.344;2023-06-04T01:33:15;6.45;;;1.98;;
34725;SDS011;20951;50.818;4.344;2023-06-04T01:35:42;4.57;;;1.88;;
34725;SDS011;20951;50.818;4.344;2023-06-04T01:38:09;4.18;;;1.80;;
34725;SDS011;20951;50.818;4.344;2023-06-04T01:40:36;6.40;;;2.10;;
34725;SDS011;20951;50.818;4.344;2023-06-04T01:43:02;6.75;;;1.85;;
34725;SDS011;20951;50.818;4.344;2023-06-04T01:45:29;5.03;;;1.88;;
34725;SDS011;20951;50.818;4.344;2023-06-04T01:47:55;5.18;;;2.17;;
34725;SDS011;20951;50.818;4.344;2023-06-04T01:50:21;4.88;;;1.85;;
34725;SDS011;20951;50.818;4.344;2023-06-04T01:52:48;5.40;;;2.30;;
34725;SDS011;20951;50.818;4.344;2023-06-04T01:55:14;4.18;;;2.08;;
34725;SDS011;20951;50.818;4.344;2023-06-04T01:57:44;4.57;;;2.20;;
34725;SDS011;20951;50.818;4.344;2023-06-04T02:00:11;7.38;;;2.40;;
34725;SDS011;20951;50.818;4.344;2023-06-04T02:02:37;4.05;;;2.17;;
34725;SDS011;20951;50.818;4.344;2023-06-04T02:05:06;6.15;;;2.30;;
34725;SDS011;20951;50.818;4.344;2023-06-04T02:07:33;7.57;;;2.35;;
34725;SDS011;20951;50.818;4.344;2023-06-04T02:10:07;7.60;;;2.03;;
34725;SDS011;20951;50.818;4.344;2023-06-04T02:12:36;4.60;;;2.40;;
34725;SDS011;20951;50.818;4.344;2023-06-04T02:15:03;7.22;;;2.40;;
34725;SDS011;20951;50.818;4.344;2023-06-04T02:17:29;8.98;;;2.30;;
34725;SDS011;20951;50.818;4.344;2023-06-04T02:20:02;5.90;;;2.25;;
34725;SDS011;20951;50.818;4.344;2023-06-04T02:22:30;5.45;;;2.55;;
34725;SDS011;20951;50.818;4.344;2023-06-04T02:24:56;4.75;;;2.20;;
34725;SDS011;20951;50.818;4.344;2023-06-04T02:27:22;6.95;;;2.38;;
34725;SDS011;20951;50.818;4.344;2023-06-04T02:29:48;5.47;;;2.33;;
34725;SDS011;20951;50.818;4.344;2023-06-04T02:32:14;9.85;;;2.42;;
34725;SDS011;20951;50.818;4.344;2023-06-04T02:34:40;5.47;;;2.30;;
34725;SDS011;20951;50.818;4.344;2023-06-04T02:37:06;5.25;;;2.20;;
34725;SDS011;20951;50.818;4.344;2023-06-04T02:39:32;8.60;;;2.85;;
34725;SDS011;20951;50.818;4.344;2023-06-04T02:41:58;6.82;;;2.58;;
34725;SDS011;20951;50.818;4.344;2023-06-04T02:44:24;6.53;;;2.30;;
34725;SDS011;20951;50.818;4.344;2023-06-04T02:46:50;4.40;;;2.50;;
34725;SDS011;20951;50.818;4.344;2023-06-04T02:49:16;6.40;;;2.47;;
34725;SDS011;20951;50.818;4.344;2023-06-04T02:51:43;6.05;;;2.28;;
34725;SDS011;20951;50.818;4.344;2023-06-04T02:54:09;7.30;;;2.40;;
34725;SDS011;20951;50.818;4.344;2023-06-04T02:56:36;6.50;;;2.65;;
34725;SDS011;20951;50.818;4.344;2023-06-04T02:59:02;5.63;;;2.38;;
34725;SDS011;20951;50.818;4.344;2023-06-04T03:01:30;4.78;;;2.50;;
34725;SDS011;20951;50.818;4.344;2023-06-04T03:03:56;4.45;;;2.10;;
34725;SDS011;20951;50.818;4.344;2023-06-04T03:06:22;6.43;;;2.75;;
34725;SDS011;20951;50.818;4.344;2023-06-04T03:08:49;4.78;;;2.55;;
34725;SDS011;20951;50.818;4.344;2023-06-04T03:11:19;5.88;;;2.70;;
34725;SDS011;20951;50.818;4.344;2023-06-04T03:13:46;5.13;;;2.47;;
34725;SDS011;20951;50.818;4.344;2023-06-04T03:16:13;6.60;;;2.80;;
34725;SDS011;20951;50.818;4.344;2023-06-04T03:18:40;5.53;;;2.60;;
34725;SDS011;20951;50.818;4.344;2023-06-04T03:21:06;6.75;;;2.63;;
34725;SDS011;20951;50.818;4.344;2023-06-04T03:23:34;5.95;;;2.45;;
34725;SDS011;20951;50.818;4.344;2023-06-04T03:26:00;5.70;;;2.60;;
34725;SDS011;20951;50.818;4.344;2023-06-04T03:28:27;5.07;;;2.50;;
34725;SDS011;20951;50.818;4.344;2023-06-04T03:30:53;5.03;;;2.33;;
34725;SDS011;20951;50.818;4.344;2023-06-04T03:33:20;9.13;;;2.50;;
34725;SDS011;20951;50.818;4.344;2023-06-04T03:35:46;7.15;;;3.10;;
34725;SDS011;20951;50.818;4.344;2023-06-04T03:38:13;4.80;;;2.80;;
34725;SDS011;20951;50.818;4.344;2023-06-04T03:40:40;5.78;;;2.55;;
34725;SDS011;20951;50.818;4.344;2023-06-04T03:43:07;6.70;;;2.50;;
34725;SDS011;20951;50.818;4.344;2023-06-04T03:45:34;6.57;;;2.65;;
34725;SDS011;20951;50.818;4.344;2023-06-04T03:48:01;6.30;;;2.42;;
34725;SDS011;20951;50.818;4.344;2023-06-04T03:50:27;5.25;;;2.60;;
34725;SDS011;20951;50.818;4.344;2023-06-04T03:52:53;5.88;;;2.80;;
34725;SDS011;20951;50.818;4.344;2023-06-04T03:55:19;6.38;;;2.70;;
34725;SDS011;20951;50.818;4.344;2023-06-04T03:57:45;5.15;;;2.95;;
34725;SDS011;20951;50.818;4.344;2023-06-04T04:00:11;5.30;;;2.80;;
34725;SDS011;20951;50.818;4.344;2023-06-04T04:02:39;7.07;;;2.75;;
34725;SDS011;20951;50.818;4.344;2023-06-04T04:05:06;7.30;;;3.03;;
34725;SDS011;20951;50.818;4.344;2023-06-04T04:07:34;7.05;;;2.55;;
34725;SDS011;20951;50.818;4.344;2023-06-04T04:10:04;6.43;;;2.70;;
34725;SDS011;20951;50.818;4.344;2023-06-04T04:12:31;5.97;;;2.80;;
34725;SDS011;20951;50.818;4.344;2023-06-04T04:14:57;7.53;;;3.00;;
34725;SDS011;20951;50.818;4.344;2023-06-04T04:17:23;5.97;;;2.78;;
34725;SDS011;20951;50.818;4.344;2023-06-04T04:19:51;6.75;;;3.33;;
34725;SDS011;20951;50.818;4.344;2023-06-04T04:22:20;5.63;;;2.63;;
34725;SDS011;20951;50.818;4.344;2023-06-04T04:24:46;6.60;;;2.65;;
34725;SDS011;20951;50.818;4.344;2023-06-04T04:27:13;6.38;;;2.60;;
34725;SDS011;20951;50.818;4.344;2023-06-04T04:29:40;4.57;;;2.50;;
34725;SDS011;20951;50.818;4.344;2023-06-04T04:32:08;8.32;;;3.22;;
34725;SDS011;20951;50.818;4.344;2023-06-04T04:34:38;6.35;;;2.65;;
34725;SDS011;20951;50.818;4.344;2023-06-04T04:37:04;7.10;;;2.95;;
34725;SDS011;20951;50.818;4.344;2023-06-04T04:39:34;5.63;;;2.88;;
34725;SDS011;20951;50.818;4.344;2023-06-04T04:42:03;5.05;;;2.70;;
34725;SDS011;20951;50.818;4.344;2023-06-04T04:44:30;8.30;;;3.00;;
34725;SDS011;20951;50.818;4.344;2023-06-04T04:46:56;5.95;;;2.60;;
34725;SDS011;20951;50.818;4.344;2023-06-04T04:49:22;6.85;;;2.80;;
34725;SDS011;20951;50.818;4.344;2023-06-04T04:51:48;7.78;;;2.95;;
34725;SDS011;20951;50.818;4.344;2023-06-04T04:54:14;8.90;;;2.97;;
34725;SDS011;20951;50.818;4.344;2023-06-04T04:56:40;5.97;;;2.83;;
34725;SDS011;20951;50.818;4.344;2023-06-04T04:59:06;8.10;;;3.08;;
34725;SDS011;20951;50.818;4.344;2023-06-04T05:01:32;8.88;;;3.08;;
34725;SDS011;20951;50.818;4.344;2023-06-04T05:04:01;8.98;;;3.40;;
34725;SDS011;20951;50.818;4.344;2023-06-04T05:06:28;10.30;;;3.22;;
34725;SDS011;20951;50.818;4.344;2023-06-04T05:08:53;8.95;;;2.95;;
34725;SDS011;20951;50.818;4.344;2023-06-04T05:11:19;7.03;;;3.03;;
34725;SDS011;20951;50.818;4.344;2023-06-04T05:13:46;8.00;;;3.28;;
34725;SDS011;20951;50.818;4.344;2023-06-04T05:16:12;6.90;;;3.03;;
34725;SDS011;20951;50.818;4.344;2023-06-04T05:18:38;7.47;;;3.08;;
34725;SDS011;20951;50.818;4.344;2023-06-04T05:21:09;7.72;;;3.03;;
34725;SDS011;20951;50.818;4.344;2023-06-04T05:23:38;5.85;;;3.03;;
34725;SDS011;20951;50.818;4.344;2023-06-04T05:26:04;6.63;;;2.80;;
34725;SDS011;20951;50.818;4.344;2023-06-04T05:28:31;7.22;;;3.03;;
34725;SDS011;20951;50.818;4.344;2023-06-04T05:31:00;7.38;;;2.88;;
34725;SDS011;20951;50.818;4.344;2023-06-04T05:33:27;7.53;;;2.72;;
34725;SDS011;20951;50.818;4.344;2023-06-04T05:35:55;6.43;;;3.00;;
34725;SDS011;20951;50.818;4.344;2023-06-04T05:38:25;6.13;;;2.90;;
34725;SDS011;20951;50.818;4.344;2023-06-04T05:40:53;6.03;;;2.95;;
34725;SDS011;20951;50.818;4.344;2023-06-04T05:43:20;5.47;;;2.95;;
34725;SDS011;20951;50.818;4.344;2023-06-04T05:45:47;7.07;;;3.40;;
34725;SDS011;20951;50.818;4.344;2023-06-04T05:48:13;6.28;;;2.97;;
34725;SDS011;20951;50.818;4.344;2023-06-04T05:50:39;9.45;;;3.22;;
34725;SDS011;20951;50.818;4.344;2023-06-04T05:53:06;7.35;;;3.40;;
34725;SDS011;20951;50.818;4.344;2023-06-04T05:55:32;8.68;;;3.20;;
34725;SDS011;20951;50.818;4.344;2023-06-04T05:57:58;8.95;;;3.10;;
34725;SDS011;20951;50.818;4.344;2023-06-04T06:00:24;6.45;;;3.17;;
34725;SDS011;20951;50.818;4.344;2023-06-04T06:02:50;5.55;;;3.10;;
34725;SDS011;20951;50.818;4.344;2023-06-04T06:05:19;7.07;;;3.22;;
34725;SDS011;20951;50.818;4.344;2023-06-04T06:07:46;8.90;;;3.38;;
34725;SDS011;20951;50.818;4.344;2023-06-04T06:10:12;8.48;;;2.85;;
34725;SDS011;20951;50.818;4.344;2023-06-04T06:12:40;8.73;;;3.38;;
34725;SDS011;20951;50.818;4.344;2023-06-04T06:15:06;7.63;;;3.20;;
34725;SDS011;20951;50.818;4.344;2023-06-04T06:17:33;6.55;;;2.97;;
34725;SDS011;20951;50.818;4.344;2023-06-04T06:19:59;10.55;;;3.50;;
34725;SDS011;20951;50.818;4.344;2023-06-04T06:22:25;7.90;;;3.17;;
34725;SDS011;20951;50.818;4.344;2023-06-04T06:24:52;5.35;;;2.75;;
34725;SDS011;20951;50.818;4.344;2023-06-04T06:27:18;4.97;;;2.70;;
34725;SDS011;20951;50.818;4.344;2023-06-04T06:29:45;5.05;;;2.47;;
34725;SDS011;20951;50.818;4.344;2023-06-04T06:32:11;6.90;;;2.80;;
34725;SDS011;20951;50.818;4.344;2023-06-04T06:34:37;5.55;;;2.75;;
34725;SDS011;20951;50.818;4.344;2023-06-04T06:37:03;5.57;;;2.80;;
34725;SDS011;20951;50.818;4.344;2023-06-04T06:39:29;6.22;;;2.38;;
34725;SDS011;20951;50.818;4.344;2023-06-04T06:41:55;5.07;;;2.42;;
34725;SDS011;20951;50.818;4.344;2023-06-04T06:44:21;4.63;;;2.70;;
34725;SDS011;20951;50.818;4.344;2023-06-04T06:46:47;4.85;;;2.30;;
34725;SDS011;20951;50.818;4.344;2023-06-04T06:49:14;5.93;;;2.58;;
34725;SDS011;20951;50.818;4.344;2023-06-04T06:51:40;7.38;;;2.42;;
34725;SDS011;20951;50.818;4.344;2023-06-04T06:54:08;4.55;;;2.30;;
34725;SDS011;20951;50.818;4.344;2023-06-04T06:56:35;6.85;;;2.40;;
34725;SDS011;20951;50.818;4.344;2023-06-04T06:59:01;6.25;;;2.38;;
34725;SDS011;20951;50.818;4.344;2023-06-04T07:01:27;6.80;;;2.50;;
34725;SDS011;20951;50.818;4.344;2023-06-04T07:03:53;7.18;;;2.28;;
34725;SDS011;20951;50.818;4.344;2023-06-04T07:06:19;8.48;;;2.40;;
34725;SDS011;20951;50.818;4.344;2023-06-04T07:08:45;6.03;;;2.20;;
34725;SDS011;20951;50.818;4.344;2023-06-04T07:11:13;6.28;;;2.47;;
34725;SDS011;20951;50.818;4.344;2023-06-04T07:13:39;5.38;;;2.25;;
34725;SDS011;20951;50.818;4.344;2023-06-04T07:16:05;4.97;;;2.30;;
34725;SDS011;20951;50.818;4.344;2023-06-04T07:18:31;7.03;;;2.17;;
34725;SDS011;20951;50.818;4.344;2023-06-04T07:20:58;7.15;;;2.20;;
34725;SDS011;20951;50.818;4.344;2023-06-04T07:23:24;5.10;;;2.30;;
34725;SDS011;20951;50.818;4.344;2023-06-04T07:25:50;3.83;;;2.13;;
34725;SDS011;20951;50.818;4.344;2023-06-04T07:28:16;3.33;;;1.90;;
34725;SDS011;20951;50.818;4.344;2023-06-04T07:30:42;4.82;;;2.38;;
34725;SDS011;20951;50.818;4.344;2023-06-04T07:33:09;3.83;;;2.00;;
34725;SDS011;20951;50.818;4.344;2023-06-04T07:35:36;4.38;;;2.13;;
34725;SDS011;20951;50.818;4.344;2023-06-04T07:38:02;5.95;;;2.05;;
34725;SDS011;20951;50.818;4.344;2023-06-04T07:40:28;4.70;;;1.88;;
34725;SDS011;20951;50.818;4.344;2023-06-04T07:42:54;4.90;;;1.90;;
34725;SDS011;20951;50.818;4.344;2023-06-04T07:45:20;7.40;;;2.22;;
34725;SDS011;20951;50.818;4.344;2023-06-04T07:47:47;4.82;;;2.17;;
34725;SDS011;20951;50.818;4.344;2023-06-04T07:50:13;11.90;;;1.88;;
34725;SDS011;20951;50.818;4.344;2023-06-04T07:52:39;4.85;;;1.77;;
34725;SDS011;20951;50.818;4.344;2023-06-04T07:55:05;5.10;;;2.08;;
34725;SDS011;20951;50.818;4.344;2023-06-04T07:57:33;5.95;;;1.90;;
34725;SDS011;20951;50.818;4.344;2023-06-04T08:00:00;4.88;;;2.00;;
34725;SDS011;20951;50.818;4.344;2023-06-04T08:02:29;7.00;;;1.90;;
34725;SDS011;20951;50.818;4.344;2023-06-04T08:04:55;4.20;;;1.83;;
34725;SDS011;20951;50.818;4.344;2023-06-04T08:07:21;6.28;;;1.80;;
34725;SDS011;20951;50.818;4.344;2023-06-04T08:09:48;5.50;;;1.75;;
34725;SDS011;20951;50.818;4.344;2023-06-04T08:12:15;3.22;;;1.70;;
34725;SDS011;20951;50.818;4.344;2023-06-04T08:14:41;5.40;;;1.70;;
34725;SDS011;20951;50.818;4.344;2023-06-04T08:17:08;5.10;;;1.73;;
34725;SDS011;20951;50.818;4.344;2023-06-04T08:19:34;6.45;;;1.65;;
34725;SDS011;20951;50.818;4.344;2023-06-04T08:22:00;4.85;;;1.75;;
34725;SDS011;20951;50.818;4.344;2023-06-04T08:24:25;4.65;;;1.70;;
34725;SDS011;20951;50.818;4.344;2023-06-04T08:26:52;4.53;;;1.80;;
34725;SDS011;20951;50.818;4.344;2023-06-04T08:29:18;4.57;;;1.70;;
34725;SDS011;20951;50.818;4.344;2023-06-04T08:31:44;5.20;;;1.30;;
34725;SDS011;20951;50.818;4.344;2023-06-04T08:34:10;4.72;;;1.63;;
34725;SDS011;20951;50.818;4.344;2023-06-04T08:36:36;5.07;;;1.67;;
34725;SDS011;20951;50.818;4.344;2023-06-04T08:39:02;6.32;;;1.52;;
34725;SDS011;20951;50.818;4.344;2023-06-04T08:41:29;6.07;;;1.70;;
34725;SDS011;20951;50.818;4.344;2023-06-04T08:44:30;8.35;;;1.70;;
34725;SDS011;20951;50.818;4.344;2023-06-04T08:47:04;6.40;;;1.60;;
34725;SDS011;20951;50.818;4.344;2023-06-04T08:49:34;6.22;;;1.50;;
34725;SDS011;20951;50.818;4.344;2023-06-04T08:52:03;5.30;;;1.60;;
34725;SDS011;20951;50.818;4.344;2023-06-04T08:54:33;4.40;;;1.50;;
34725;SDS011;20951;50.818;4.344;2023-06-04T08:57:02;3.67;;;1.30;;
34725;SDS011;20951;50.818;4.344;2023-06-04T08:59:31;6.28;;;1.77;;
34725;SDS011;20951;50.818;4.344;2023-06-04T09:02:01;3.60;;;1.52;;
34725;SDS011;20951;50.818;4.344;2023-06-04T09:04:33;4.47;;;1.30;;
34725;SDS011;20951;50.818;4.344;2023-06-04T09:07:02;4.15;;;1.40;;
34725;SDS011;20951;50.818;4.344;2023-06-04T09:09:34;4.88;;;1.30;;
34725;SDS011;20951;50.818;4.344;2023-06-04T09:12:06;5.22;;;1.48;;
34725;SDS011;20951;50.818;4.344;2023-06-04T09:14:34;4.18;;;1.50;;
34725;SDS011;20951;50.818;4.344;2023-06-04T09:17:00;5.00;;;1.48;;
34725;SDS011;20951;50.818;4.344;2023-06-04T09:19:26;5.97;;;1.38;;
34725;SDS011;20951;50.818;4.344;2023-06-04T09:21:53;3.78;;;1.20;;
34725;SDS011;20951;50.818;4.344;2023-06-04T09:24:23;5.60;;;1.50;;
34725;SDS011;20951;50.818;4.344;2023-06-04T09:27:15;4.18;;;1.60;;
34725;SDS011;20951;50.818;4.344;2023-06-04T09:29:49;5.38;;;1.40;;
34725;SDS011;20951;50.818;4.344;2023-06-04T09:34:48;5.63;;;1.30;;
34725;SDS011;20951;50.818;4.344;2023-06-04T09:37:14;6.60;;;1.70;;
34725;SDS011;20951;50.818;4.344;2023-06-04T09:39:42;4.45;;;1.40;;
34725;SDS011;20951;50.818;4.344;2023-06-04T09:42:09;4.07;;;1.30;;
34725;SDS011;20951;50.818;4.344;2023-06-04T09:44:42;5.03;;;1.55;;
34725;SDS011;20951;50.818;4.344;2023-06-04T09:47:10;6.75;;;1.67;;
34725;SDS011;20951;50.818;4.344;2023-06-04T09:49:40;5.32;;;1.80;;
34725;SDS011;20951;50.818;4.344;2023-06-04T09:52:16;7.68;;;1.60;;
34725;SDS011;20951;50.818;4.344;2023-06-04T09:54:42;5.15;;;1.45;;
34725;SDS011;20951;50.818;4.344;2023-06-04T09:57:16;4.30;;;1.30;;
34725;SDS011;20951;50.818;4.344;2023-06-04T09:59:44;6.18;;;1.55;;
34725;SDS011;20951;50.818;4.344;2023-06-04T10:02:11;5.45;;;1.50;;
34725;SDS011;20951;50.818;4.344;2023-06-04T10:04:42;4.28;;;1.60;;
34725;SDS011;20951;50.818;4.344;2023-06-04T10:07:09;4.82;;;1.83;;
34725;SDS011;20951;50.818;4.344;2023-06-04T10:09:41;5.00;;;1.70;;
34725;SDS011;20951;50.818;4.344;2023-06-04T10:12:15;6.30;;;3.90;;
34725;SDS011;20951;50.818;4.344;2023-06-04T10:14:52;6.90;;;3.22;;
34725;SDS011;20951;50.818;4.344;2023-06-04T10:17:23;6.45;;;1.45;;
34725;SDS011;20951;50.818;4.344;2023-06-04T10:19:54;5.10;;;1.77;;
34725;SDS011;20951;50.818;4.344;2023-06-04T10:22:21;5.40;;;1.77;;
34725;SDS011;20951;50.818;4.344;2023-06-04T10:24:48;5.70;;;1.50;;
34725;SDS011;20951;50.818;4.344;2023-06-04T10:27:18;5.05;;;1.58;;
34725;SDS011;20951;50.818;4.344;2023-06-04T10:29:47;6.80;;;1.50;;
34725;SDS011;20951;50.818;4.344;2023-06-04T10:32:15;5.10;;;1.60;;
34725;SDS011;20951;50.818;4.344;2023-06-04T10:34:42;5.85;;;1.70;;
34725;SDS011;20951;50.818;4.344;2023-06-04T10:37:20;3.85;;;1.40;;
34725;SDS011;20951;50.818;4.344;2023-06-04T10:39:57;5.07;;;1.58;;
34725;SDS011;20951;50.818;4.344;2023-06-04T10:42:24;5.20;;;1.40;;
34725;SDS011;20951;50.818;4.344;2023-06-04T10:45:03;4.88;;;1.40;;
34725;SDS011;20951;50.818;4.344;2023-06-04T10:47:31;4.85;;;1.75;;
34725;SDS011;20951;50.818;4.344;2023-06-04T10:50:12;4.22;;;3.00;;
34725;SDS011;20951;50.818;4.344;2023-06-04T10:52:54;8.15;;;3.22;;
34725;SDS011;20951;50.818;4.344;2023-06-04T10:55:22;5.07;;;1.60;;
34725;SDS011;20951;50.818;4.344;2023-06-04T10:57:53;4.15;;;1.80;;
34725;SDS011;20951;50.818;4.344;2023-06-04T11:00:21;5.97;;;1.90;;
34725;SDS011;20951;50.818;4.344;2023-06-04T11:05:19;6.25;;;1.27;;
34725;SDS011;20951;50.818;4.344;2023-06-04T11:08:06;3.55;;;1.50;;
34725;SDS011;20951;50.818;4.344;2023-06-04T11:10:42;4.28;;;1.33;;
34725;SDS011;20951;50.818;4.344;2023-06-04T11:13:10;6.30;;;1.77;;
34725;SDS011;20951;50.818;4.344;2023-06-04T11:19:35;4.03;;;1.42;;
34725;SDS011;20951;50.818;4.344;2023-06-04T11:22:59;4.50;;;1.48;;
34725;SDS011;20951;50.818;4.344;2023-06-04T11:49:39;8.38;;;1.30;;
34725;SDS011;20951;50.818;4.344;2023-06-04T11:52:09;7.18;;;1.30;;
34725;SDS011;20951;50.818;4.344;2023-06-04T11:57:37;5.15;;;1.70;;
34725;SDS011;20951;50.818;4.344;2023-06-04T12:00:05;4.93;;;1.25;;
34725;SDS011;20951;50.818;4.344;2023-06-04T12:12:53;5.93;;;1.55;;
34725;SDS011;20951;50.818;4.344;2023-06-04T12:19:48;4.55;;;1.60;;
34725;SDS011;20951;50.818;4.344;2023-06-04T12:39:29;8.45;;;1.50;;
34725;SDS011;20951;50.818;4.344;2023-06-04T12:52:11;6.78;;;1.83;;
34725;SDS011;20951;50.818;4.344;2023-06-04T12:54:39;5.63;;;1.50;;
34725;SDS011;20951;50.818;4.344;2023-06-04T13:41:01;6.68;;;1.60;;
34725;SDS011;20951;50.818;4.344;2023-06-04T13:53:13;4.93;;;1.55;;
34725;SDS011;20951;50.818;4.344;2023-06-04T14:02:27;5.85;;;1.75;;
34725;SDS011;20951;50.818;4.344;2023-06-04T14:11:38;6.78;;;1.83;;
34725;SDS011;20951;50.818;4.344;2023-06-04T14:18:05;4.82;;;1.63;;
34725;SDS011;20951;50.818;4.344;2023-06-04T14:56:39;3.92;;;1.63;;
34725;SDS011;20951;50.818;4.344;2023-06-04T15:02:37;3.38;;;1.35;;
34725;SDS011;20951;50.818;4.344;2023-06-04T15:05:07;3.28;;;1.52;;
34725;SDS011;20951;50.818;4.344;2023-06-04T15:07:55;7.55;;;1.70;;
34725;SDS011;20951;50.818;4.344;2023-06-04T15:10:40;4.22;;;1.88;;
34725;SDS011;20951;50.818;4.344;2023-06-04T15:17:13;3.67;;;1.50;;
34725;SDS011;20951;50.818;4.344;2023-06-04T15:20:01;5.45;;;1.50;;
34725;SDS011;20951;50.818;4.344;2023-06-04T15:36:01;7.30;;;1.88;;
34725;SDS011;20951;50.818;4.344;2023-06-04T15:48:20;4.63;;;1.48;;
34725;SDS011;20951;50.818;4.344;2023-06-04T15:51:27;3.72;;;1.40;;
34725;SDS011;20951;50.818;4.344;2023-06-04T15:53:53;3.15;;;1.30;;
34725;SDS011;20951;50.818;4.344;2023-06-04T15:56:20;3.33;;;1.40;;
34725;SDS011;20951;50.818;4.344;2023-06-04T15:58:57;5.45;;;1.60;;
34725;SDS011;20951;50.818;4.344;2023-06-04T16:02:18;2.85;;;1.55;;
34725;SDS011;20951;50.818;4.344;2023-06-04T16:12:01;3.83;;;1.50;;
34725;SDS011;20951;50.818;4.344;2023-06-04T16:31:21;4.70;;;1.88;;
34725;SDS011;20951;50.818;4.344;2023-06-04T16:34:50;2.97;;;1.65;;
34725;SDS011;20951;50.818;4.344;2023-06-04T16:53:55;5.03;;;1.58;;
34725;SDS011;20951;50.818;4.344;2023-06-04T17:09:33;5.10;;;2.10;;
34725;SDS011;20951;50.818;4.344;2023-06-04T17:11:59;4.88;;;1.70;;
34725;SDS011;20951;50.818;4.344;2023-06-04T17:14:25;3.00;;;1.92;;
34725;SDS011;20951;50.818;4.344;2023-06-04T17:16:54;4.15;;;1.50;;
34725;SDS011;20951;50.818;4.344;2023-06-04T17:19:20;5.88;;;1.50;;
34725;SDS011;20951;50.818;4.344;2023-06-04T17:21:46;7.03;;;1.85;;
34725;SDS011;20951;50.818;4.344;2023-06-04T17:24:12;3.38;;;1.65;;
34725;SDS011;20951;50.818;4.344;2023-06-04T17:26:38;6.32;;;1.90;;
34725;SDS011;20951;50.818;4.344;2023-06-04T17:29:13;4.32;;;1.90;;
34725;SDS011;20951;50.818;4.344;2023-06-04T17:31:39;5.93;;;1.75;;
34725;SDS011;20951;50.818;4.344;2023-06-04T17:34:08;4.85;;;1.88;;
34725;SDS011;20951;50.818;4.344;2023-06-04T17:36:35;5.82;;;1.95;;
34725;SDS011;20951;50.818;4.344;2023-06-04T17:39:01;6.40;;;2.05;;
34725;SDS011;20951;50.818;4.344;2023-06-04T18:11:50;7.65;;;2.15;;
34725;SDS011;20951;50.818;4.344;2023-06-04T18:44:15;3.78;;;1.90;;
34725;SDS011;20951;50.818;4.344;2023-06-04T19:06:35;5.95;;;2.50;;
34725;SDS011;20951;50.818;4.344;2023-06-04T19:17:17;8.67;;;2.10;;
34725;SDS011;20951;50.818;4.344;2023-06-04T19:23:58;5.22;;;2.22;;
34725;SDS011;20951;50.818;4.344;2023-06-04T19:26:31;6.93;;;2.60;;
34725;SDS011;20951;50.818;4.344;2023-06-04T19:38:50;8.02;;;3.15;;
34725;SDS011;20951;50.818;4.344;2023-06-04T19:50:36;9.07;;;2.90;;
34725;SDS011;20951;50.818;4.344;2023-06-04T19:56:56;8.85;;;2.80;;
34725;SDS011;20951;50.818;4.344;2023-06-04T20:10:10;8.70;;;2.33;;
34725;SDS011;20951;50.818;4.344;2023-06-04T20:13:32;7.32;;;2.60;;
34725;SDS011;20951;50.818;4.344;2023-06-04T20:16:19;6.72;;;2.50;;
34725;SDS011;20951;50.818;4.344;2023-06-04T20:18:47;7.60;;;2.50;;
34725;SDS011;20951;50.818;4.344;2023-06-04T20:21:13;7.90;;;2.33;;
34725;SDS011;20951;50.818;4.344;2023-06-04T20:23:39;8.40;;;2.38;;
34725;SDS011;20951;50.818;4.344;2023-06-04T20:26:06;6.78;;;2.30;;
34725;SDS011;20951;50.818;4.344;2023-06-04T20:28:32;5.22;;;2.25;;
34725;SDS011;20951;50.818;4.344;2023-06-04T20:57:54;8.18;;;2.47;;
34725;SDS011;20951;50.818;4.344;2023-06-04T21:00:39;9.55;;;2.92;;
34725;SDS011;20951;50.818;4.344;2023-06-04T21:06:33;7.78;;;2.70;;
34725;SDS011;20951;50.818;4.344;2023-06-04T21:09:01;15.57;;;3.60;;
34725;SDS011;20951;50.818;4.344;2023-06-04T21:11:33;7.47;;;2.80;;
34725;SDS011;20951;50.818;4.344;2023-06-04T21:17:08;8.38;;;2.67;;
34725;SDS011;20951;50.818;4.344;2023-06-04T21:20:09;5.93;;;2.47;;
34725;SDS011;20951;50.818;4.344;2023-06-04T21:25:45;9.38;;;2.70;;
34725;SDS011;20951;50.818;4.344;2023-06-04T21:28:24;6.93;;;2.70;;
34725;SDS011;20951;50.818;4.344;2023-06-04T21:30:49;7.05;;;2.60;;
34725;SDS011;20951;50.818;4.344;2023-06-04T21:36:05;10.15;;;2.65;;
34725;SDS011;20951;50.818;4.344;2023-06-04T21:41:59;6.65;;;3.08;;
34725;SDS011;20951;50.818;4.344;2023-06-04T21:44:36;8.75;;;3.10;;
34725;SDS011;20951;50.818;4.344;2023-06-04T21:48:19;7.07;;;2.65;;
34725;SDS011;20951;50.818;4.344;2023-06-04T21:51:16;7.78;;;2.60;;
34725;SDS011;20951;50.818;4.344;2023-06-04T21:53:43;7.88;;;2.78;;
34725;SDS011;20951;50.818;4.344;2023-06-04T21:56:24;6.88;;;2.85;;
34725;SDS011;20951;50.818;4.344;2023-06-04T21:58:51;8.93;;;2.85;;
34725;SDS011;20951;50.818;4.344;2023-06-04T22:01:55;7.40;;;2.78;;
34725;SDS011;20951;50.818;4.344;2023-06-04T22:04:44;12.75;;;2.90;;
34725;SDS011;20951;50.818;4.344;2023-06-04T22:11:20;10.63;;;3.42;;
34725;SDS011;20951;50.818;4.344;2023-06-04T22:13:47;6.32;;;2.78;;
34725;SDS011;20951;50.818;4.344;2023-06-04T22:16:13;8.85;;;3.00;;
34725;SDS011;20951;50.818;4.344;2023-06-04T22:18:39;8.40;;;3.30;;
34725;SDS011;20951;50.818;4.344;2023-06-04T22:21:05;6.55;;;3.20;;
34725;SDS011;20951;50.818;4.344;2023-06-04T22:23:34;10.35;;;3.17;;
34725;SDS011;20951;50.818;4.344;2023-06-04T22:26:00;8.35;;;3.08;;
34725;SDS011;20951;50.818;4.344;2023-06-04T22:28:26;7.75;;;3.53;;
34725;SDS011;20951;50.818;4.344;2023-06-04T22:30:52;8.18;;;3.17;;